sensor_id;sensor_type;location;lat;lon;timestamp;P1;durP1;ratioP1;P2;durP2;ratioP2
19812;SDS011;10066;48.108;11.448;2023-09-18T00:00:00;9.47;;;5.90;;
19812;SDS011;10066;48.108;11.448;2023-09-18T00:02:29;6.80;;;6.20;;
19812;SDS011;10066;48.108;11.448;2023-09-18T00:04:56;6.67;;;5.63;;
19812;SDS011;10066;48.108;11.448;2023-09-18T00:07:23;6.97;;;6.33;;
19812;SDS011;10066;48.108;11.448;2023-09-18T00:09:50;6.67;;;5.57;;
19812;SDS011;10066;48.108;11.448;2023-09-18T00:12:17;8.30;;;5.70;;
19812;SDS011;10066;48.108;11.448;2023-09-18T00:14:47;6.40;;;5.70;;
19812;SDS011;10066;48.108;11.448;2023-09-18T00:17:15;6.60;;;5.27;;
19812;SDS011;10066;48.108;11.448;2023-09-18T00:19:44;6.80;;;5.67;;
19812;SDS011;10066;48.108;11.448;2023-09-18T00:22:11;6.53;;;5.73;;
19812;SDS011;10066;48.108;11.448;2023-09-18T00:24:38;6.93;;;4.83;;
19812;SDS011;10066;48.108;11.448;2023-09-18T00:27:05;8.23;;;5.07;;
19812;SDS011;10066;48.108;11.448;2023-09-18T00:29:32;5.97;;;5.37;;
19812;SDS011;10066;48.108;11.448;2023-09-18T00:31:59;5.67;;;5.00;;
19812;SDS011;10066;48.108;11.448;2023-09-18T00:34:28;5.87;;;4.63;;
19812;SDS011;10066;48.108;11.448;2023-09-18T00:36:56;5.77;;;4.83;;
19812;SDS011;10066;48.108;11.448;2023-09-18T00:39:24;6.47;;;5.20;;
19812;SDS011;10066;48.108;11.448;2023-09-18T00:41:51;4.90;;;4.47;;
19812;SDS011;10066;48.108;11.448;2023-09-18T00:44:19;5.30;;;4.57;;
19812;SDS011;10066;48.108;11.448;2023-09-18T00:46:46;6.33;;;4.80;;
19812;SDS011;10066;48.108;11.448;2023-09-18T00:49:15;5.60;;;4.80;;
19812;SDS011;10066;48.108;11.448;2023-09-18T00:51:46;8.97;;;5.00;;
19812;SDS011;10066;48.108;11.448;2023-09-18T00:54:13;5.63;;;4.90;;
19812;SDS011;10066;48.108;11.448;2023-09-18T00:56:43;9.13;;;4.50;;
19812;SDS011;10066;48.108;11.448;2023-09-18T00:59:10;7.30;;;4.10;;
19812;SDS011;10066;48.108;11.448;2023-09-18T01:01:38;6.37;;;4.17;;
19812;SDS011;10066;48.108;11.448;2023-09-18T01:04:06;4.67;;;4.00;;
19812;SDS011;10066;48.108;11.448;2023-09-18T01:06:34;4.80;;;4.00;;
19812;SDS011;10066;48.108;11.448;2023-09-18T01:09:03;4.87;;;4.37;;
19812;SDS011;10066;48.108;11.448;2023-09-18T01:11:40;5.27;;;4.77;;
19812;SDS011;10066;48.108;11.448;2023-09-18T01:14:17;6.20;;;4.37;;
19812;SDS011;10066;48.108;11.448;2023-09-18T01:16:50;5.17;;;4.67;;
19812;SDS011;10066;48.108;11.448;2023-09-18T01:19:35;5.00;;;4.47;;
19812;SDS011;10066;48.108;11.448;2023-09-18T01:22:03;7.50;;;4.63;;
19812;SDS011;10066;48.108;11.448;2023-09-18T01:24:32;6.00;;;4.77;;
19812;SDS011;10066;48.108;11.448;2023-09-18T01:26:59;5.50;;;4.50;;
19812;SDS011;10066;48.108;11.448;2023-09-18T01:29:26;5.37;;;4.47;;
19812;SDS011;10066;48.108;11.448;2023-09-18T01:31:53;5.10;;;4.60;;
19812;SDS011;10066;48.108;11.448;2023-09-18T01:34:21;6.07;;;4.77;;
19812;SDS011;10066;48.108;11.448;2023-09-18T01:36:51;4.63;;;4.23;;
19812;SDS011;10066;48.108;11.448;2023-09-18T01:39:19;5.30;;;4.40;;
19812;SDS011;10066;48.108;11.448;2023-09-18T01:41:48;7.60;;;4.20;;
19812;SDS011;10066;48.108;11.448;2023-09-18T01:44:16;5.63;;;4.13;;
19812;SDS011;10066;48.108;11.448;2023-09-18T01:46:43;6.83;;;4.13;;
19812;SDS011;10066;48.108;11.448;2023-09-18T01:49:10;7.30;;;4.20;;
19812;SDS011;10066;48.108;11.448;2023-09-18T01:51:37;5.20;;;3.83;;
19812;SDS011;10066;48.108;11.448;2023-09-18T01:54:04;4.40;;;3.90;;
19812;SDS011;10066;48.108;11.448;2023-09-18T01:56:32;5.50;;;3.90;;
19812;SDS011;10066;48.108;11.448;2023-09-18T01:59:00;5.50;;;4.00;;
19812;SDS011;10066;48.108;11.448;2023-09-18T02:01:27;5.83;;;4.10;;
19812;SDS011;10066;48.108;11.448;2023-09-18T02:03:55;4.73;;;3.83;;
19812;SDS011;10066;48.108;11.448;2023-09-18T02:06:21;6.27;;;3.60;;
19812;SDS011;10066;48.108;11.448;2023-09-18T02:08:48;5.30;;;3.80;;
19812;SDS011;10066;48.108;11.448;2023-09-18T02:11:15;6.43;;;4.00;;
19812;SDS011;10066;48.108;11.448;2023-09-18T02:13:42;6.77;;;3.83;;
19812;SDS011;10066;48.108;11.448;2023-09-18T02:16:10;4.00;;;3.60;;
19812;SDS011;10066;48.108;11.448;2023-09-18T02:18:38;4.53;;;3.83;;
19812;SDS011;10066;48.108;11.448;2023-09-18T02:21:05;4.50;;;3.60;;
19812;SDS011;10066;48.108;11.448;2023-09-18T02:23:32;6.77;;;3.70;;
19812;SDS011;10066;48.108;11.448;2023-09-18T02:25:59;5.53;;;3.70;;
19812;SDS011;10066;48.108;11.448;2023-09-18T02:28:26;6.77;;;3.70;;
19812;SDS011;10066;48.108;11.448;2023-09-18T02:30:53;5.00;;;3.60;;
19812;SDS011;10066;48.108;11.448;2023-09-18T02:33:21;6.37;;;3.30;;
19812;SDS011;10066;48.108;11.448;2023-09-18T02:35:48;7.00;;;3.43;;
19812;SDS011;10066;48.108;11.448;2023-09-18T02:38:15;5.93;;;3.90;;
19812;SDS011;10066;48.108;11.448;2023-09-18T02:40:42;6.70;;;4.13;;
19812;SDS011;10066;48.108;11.448;2023-09-18T02:43:09;5.67;;;3.90;;
19812;SDS011;10066;48.108;11.448;2023-09-18T02:45:36;4.07;;;3.57;;
19812;SDS011;10066;48.108;11.448;2023-09-18T02:48:03;5.53;;;3.60;;
19812;SDS011;10066;48.108;11.448;2023-09-18T02:50:31;8.00;;;4.00;;
19812;SDS011;10066;48.108;11.448;2023-09-18T02:52:58;5.67;;;3.73;;
19812;SDS011;10066;48.108;11.448;2023-09-18T02:55:25;4.20;;;3.23;;
19812;SDS011;10066;48.108;11.448;2023-09-18T02:57:52;4.17;;;3.10;;
19812;SDS011;10066;48.108;11.448;2023-09-18T03:00:19;4.87;;;3.30;;
19812;SDS011;10066;48.108;11.448;2023-09-18T03:02:47;7.00;;;3.30;;
19812;SDS011;10066;48.108;11.448;2023-09-18T03:05:14;5.40;;;3.13;;
19812;SDS011;10066;48.108;11.448;2023-09-18T03:07:42;8.70;;;3.27;;
19812;SDS011;10066;48.108;11.448;2023-09-18T03:10:10;5.10;;;3.03;;
19812;SDS011;10066;48.108;11.448;2023-09-18T03:12:41;5.43;;;3.10;;
19812;SDS011;10066;48.108;11.448;2023-09-18T03:15:08;4.33;;;3.00;;
19812;SDS011;10066;48.108;11.448;2023-09-18T03:17:36;4.40;;;3.00;;
19812;SDS011;10066;48.108;11.448;2023-09-18T03:20:06;6.30;;;2.80;;
19812;SDS011;10066;48.108;11.448;2023-09-18T03:22:34;5.37;;;3.07;;
19812;SDS011;10066;48.108;11.448;2023-09-18T03:25:02;6.93;;;3.20;;
19812;SDS011;10066;48.108;11.448;2023-09-18T03:27:29;4.83;;;2.80;;
19812;SDS011;10066;48.108;11.448;2023-09-18T03:29:57;6.30;;;2.70;;
19812;SDS011;10066;48.108;11.448;2023-09-18T03:32:24;4.27;;;2.73;;
19812;SDS011;10066;48.108;11.448;2023-09-18T03:34:51;7.67;;;2.90;;
19812;SDS011;10066;48.108;11.448;2023-09-18T03:37:18;5.03;;;2.80;;
19812;SDS011;10066;48.108;11.448;2023-09-18T03:39:45;5.47;;;3.00;;
19812;SDS011;10066;48.108;11.448;2023-09-18T03:42:14;6.93;;;2.67;;
19812;SDS011;10066;48.108;11.448;2023-09-18T03:44:41;5.70;;;2.70;;
19812;SDS011;10066;48.108;11.448;2023-09-18T03:47:08;4.37;;;3.00;;
19812;SDS011;10066;48.108;11.448;2023-09-18T03:49:35;4.53;;;3.07;;
19812;SDS011;10066;48.108;11.448;2023-09-18T03:52:02;5.03;;;2.93;;
19812;SDS011;10066;48.108;11.448;2023-09-18T03:54:29;4.43;;;2.63;;
19812;SDS011;10066;48.108;11.448;2023-09-18T03:56:56;3.87;;;2.77;;
19812;SDS011;10066;48.108;11.448;2023-09-18T03:59:25;4.80;;;3.13;;
19812;SDS011;10066;48.108;11.448;2023-09-18T04:01:52;6.63;;;2.97;;
19812;SDS011;10066;48.108;11.448;2023-09-18T04:04:19;8.77;;;3.00;;
19812;SDS011;10066;48.108;11.448;2023-09-18T04:06:46;4.73;;;3.00;;
19812;SDS011;10066;48.108;11.448;2023-09-18T04:09:14;4.63;;;2.70;;
19812;SDS011;10066;48.108;11.448;2023-09-18T04:11:43;4.10;;;2.73;;
19812;SDS011;10066;48.108;11.448;2023-09-18T04:14:09;5.80;;;2.67;;
19812;SDS011;10066;48.108;11.448;2023-09-18T04:16:38;4.33;;;2.70;;
19812;SDS011;10066;48.108;11.448;2023-09-18T04:19:07;4.30;;;2.80;;
19812;SDS011;10066;48.108;11.448;2023-09-18T04:21:34;5.50;;;2.70;;
19812;SDS011;10066;48.108;11.448;2023-09-18T04:24:02;6.17;;;2.90;;
19812;SDS011;10066;48.108;11.448;2023-09-18T04:26:29;7.27;;;3.00;;
19812;SDS011;10066;48.108;11.448;2023-09-18T04:28:58;3.93;;;2.70;;
19812;SDS011;10066;48.108;11.448;2023-09-18T04:31:25;5.37;;;2.80;;
19812;SDS011;10066;48.108;11.448;2023-09-18T04:33:53;7.67;;;2.90;;
19812;SDS011;10066;48.108;11.448;2023-09-18T04:36:20;3.93;;;2.90;;
19812;SDS011;10066;48.108;11.448;2023-09-18T04:38:47;6.27;;;2.77;;
19812;SDS011;10066;48.108;11.448;2023-09-18T04:41:15;5.13;;;3.03;;
19812;SDS011;10066;48.108;11.448;2023-09-18T04:43:42;5.67;;;2.77;;
19812;SDS011;10066;48.108;11.448;2023-09-18T04:46:09;4.73;;;2.70;;
19812;SDS011;10066;48.108;11.448;2023-09-18T04:48:36;5.43;;;2.90;;
19812;SDS011;10066;48.108;11.448;2023-09-18T04:51:05;6.73;;;2.87;;
19812;SDS011;10066;48.108;11.448;2023-09-18T04:53:32;7.03;;;3.37;;
19812;SDS011;10066;48.108;11.448;2023-09-18T04:55:59;6.53;;;2.97;;
19812;SDS011;10066;48.108;11.448;2023-09-18T04:58:26;4.53;;;3.00;;
19812;SDS011;10066;48.108;11.448;2023-09-18T05:00:53;3.77;;;3.03;;
19812;SDS011;10066;48.108;11.448;2023-09-18T05:03:21;6.13;;;3.33;;
19812;SDS011;10066;48.108;11.448;2023-09-18T05:05:48;5.43;;;2.90;;
19812;SDS011;10066;48.108;11.448;2023-09-18T05:08:16;5.97;;;2.73;;
19812;SDS011;10066;48.108;11.448;2023-09-18T05:10:43;4.53;;;2.90;;
19812;SDS011;10066;48.108;11.448;2023-09-18T05:13:10;5.50;;;2.80;;
19812;SDS011;10066;48.108;11.448;2023-09-18T05:15:38;5.67;;;2.97;;
19812;SDS011;10066;48.108;11.448;2023-09-18T05:18:05;6.67;;;3.47;;
19812;SDS011;10066;48.108;11.448;2023-09-18T05:20:33;6.97;;;3.27;;
19812;SDS011;10066;48.108;11.448;2023-09-18T05:23:01;5.50;;;3.07;;
19812;SDS011;10066;48.108;11.448;2023-09-18T05:25:29;7.03;;;3.10;;
19812;SDS011;10066;48.108;11.448;2023-09-18T05:27:57;9.43;;;3.03;;
19812;SDS011;10066;48.108;11.448;2023-09-18T05:30:26;3.40;;;3.10;;
19812;SDS011;10066;48.108;11.448;2023-09-18T05:32:54;7.87;;;3.30;;
19812;SDS011;10066;48.108;11.448;2023-09-18T05:35:21;4.83;;;3.53;;
19812;SDS011;10066;48.108;11.448;2023-09-18T05:37:49;5.80;;;3.43;;
19812;SDS011;10066;48.108;11.448;2023-09-18T05:40:17;7.70;;;3.10;;
19812;SDS011;10066;48.108;11.448;2023-09-18T05:42:45;5.23;;;3.40;;
19812;SDS011;10066;48.108;11.448;2023-09-18T05:45:13;6.13;;;3.30;;
19812;SDS011;10066;48.108;11.448;2023-09-18T05:47:41;7.37;;;3.20;;
19812;SDS011;10066;48.108;11.448;2023-09-18T05:50:08;8.77;;;3.60;;
19812;SDS011;10066;48.108;11.448;2023-09-18T05:52:39;5.10;;;3.27;;
19812;SDS011;10066;48.108;11.448;2023-09-18T05:55:07;6.67;;;3.17;;
19812;SDS011;10066;48.108;11.448;2023-09-18T05:57:34;5.67;;;3.07;;
19812;SDS011;10066;48.108;11.448;2023-09-18T06:00:03;6.37;;;3.40;;
19812;SDS011;10066;48.108;11.448;2023-09-18T06:02:31;7.93;;;3.00;;
19812;SDS011;10066;48.108;11.448;2023-09-18T06:04:58;5.97;;;2.90;;
19812;SDS011;10066;48.108;11.448;2023-09-18T06:07:26;11.07;;;3.33;;
19812;SDS011;10066;48.108;11.448;2023-09-18T06:09:55;9.00;;;3.60;;
19812;SDS011;10066;48.108;11.448;2023-09-18T06:12:22;9.20;;;3.53;;
19812;SDS011;10066;48.108;11.448;2023-09-18T06:14:49;6.43;;;2.90;;
19812;SDS011;10066;48.108;11.448;2023-09-18T06:17:18;5.47;;;3.00;;
19812;SDS011;10066;48.108;11.448;2023-09-18T06:19:45;8.50;;;2.93;;
19812;SDS011;10066;48.108;11.448;2023-09-18T06:22:12;10.63;;;3.20;;
19812;SDS011;10066;48.108;11.448;2023-09-18T06:24:39;5.60;;;3.20;;
19812;SDS011;10066;48.108;11.448;2023-09-18T06:27:06;11.63;;;3.67;;
19812;SDS011;10066;48.108;11.448;2023-09-18T06:29:33;8.20;;;3.30;;
19812;SDS011;10066;48.108;11.448;2023-09-18T06:32:03;3.97;;;2.50;;
19812;SDS011;10066;48.108;11.448;2023-09-18T06:34:32;8.87;;;3.07;;
19812;SDS011;10066;48.108;11.448;2023-09-18T06:36:59;7.40;;;3.00;;
19812;SDS011;10066;48.108;11.448;2023-09-18T06:39:26;7.73;;;2.83;;
19812;SDS011;10066;48.108;11.448;2023-09-18T06:41:53;5.77;;;2.93;;
19812;SDS011;10066;48.108;11.448;2023-09-18T06:44:20;6.67;;;2.87;;
19812;SDS011;10066;48.108;11.448;2023-09-18T06:46:48;5.20;;;3.07;;
19812;SDS011;10066;48.108;11.448;2023-09-18T06:49:15;9.40;;;2.90;;
19812;SDS011;10066;48.108;11.448;2023-09-18T06:51:43;6.17;;;2.60;;
19812;SDS011;10066;48.108;11.448;2023-09-18T06:54:10;5.17;;;2.80;;
19812;SDS011;10066;48.108;11.448;2023-09-18T06:56:37;7.53;;;2.73;;
19812;SDS011;10066;48.108;11.448;2023-09-18T06:59:04;11.90;;;3.27;;
19812;SDS011;10066;48.108;11.448;2023-09-18T07:01:31;9.20;;;3.00;;
19812;SDS011;10066;48.108;11.448;2023-09-18T07:03:58;6.50;;;2.87;;
19812;SDS011;10066;48.108;11.448;2023-09-18T07:06:25;8.27;;;3.27;;
19812;SDS011;10066;48.108;11.448;2023-09-18T07:08:54;5.87;;;3.10;;
19812;SDS011;10066;48.108;11.448;2023-09-18T07:11:21;7.07;;;3.73;;
19812;SDS011;10066;48.108;11.448;2023-09-18T07:13:48;9.90;;;3.23;;
19812;SDS011;10066;48.108;11.448;2023-09-18T07:16:15;10.00;;;3.43;;
19812;SDS011;10066;48.108;11.448;2023-09-18T07:18:42;9.73;;;3.33;;
19812;SDS011;10066;48.108;11.448;2023-09-18T07:21:09;6.60;;;3.40;;
19812;SDS011;10066;48.108;11.448;2023-09-18T07:23:39;6.37;;;3.50;;
19812;SDS011;10066;48.108;11.448;2023-09-18T07:26:08;10.37;;;3.20;;
19812;SDS011;10066;48.108;11.448;2023-09-18T07:28:35;15.87;;;3.63;;
19812;SDS011;10066;48.108;11.448;2023-09-18T07:31:04;9.47;;;3.37;;
19812;SDS011;10066;48.108;11.448;2023-09-18T07:33:32;8.10;;;3.00;;
19812;SDS011;10066;48.108;11.448;2023-09-18T07:35:59;9.33;;;3.20;;
19812;SDS011;10066;48.108;11.448;2023-09-18T07:38:25;8.23;;;2.80;;
19812;SDS011;10066;48.108;11.448;2023-09-18T07:40:52;8.57;;;2.97;;
19812;SDS011;10066;48.108;11.448;2023-09-18T07:43:21;7.60;;;3.00;;
19812;SDS011;10066;48.108;11.448;2023-09-18T07:45:48;7.30;;;2.80;;
19812;SDS011;10066;48.108;11.448;2023-09-18T07:48:16;9.67;;;2.57;;
19812;SDS011;10066;48.108;11.448;2023-09-18T07:50:45;9.53;;;2.73;;
19812;SDS011;10066;48.108;11.448;2023-09-18T07:53:14;6.80;;;2.67;;
19812;SDS011;10066;48.108;11.448;2023-09-18T07:55:41;7.07;;;2.67;;
19812;SDS011;10066;48.108;11.448;2023-09-18T07:58:08;3.93;;;2.53;;
19812;SDS011;10066;48.108;11.448;2023-09-18T08:00:38;9.10;;;3.10;;
19812;SDS011;10066;48.108;11.448;2023-09-18T08:03:05;4.93;;;2.70;;
19812;SDS011;10066;48.108;11.448;2023-09-18T08:05:31;7.03;;;3.20;;
19812;SDS011;10066;48.108;11.448;2023-09-18T08:07:58;5.63;;;3.33;;
19812;SDS011;10066;48.108;11.448;2023-09-18T08:10:26;5.63;;;2.73;;
19812;SDS011;10066;48.108;11.448;2023-09-18T08:12:52;6.23;;;2.93;;
19812;SDS011;10066;48.108;11.448;2023-09-18T08:15:20;5.87;;;3.10;;
19812;SDS011;10066;48.108;11.448;2023-09-18T08:17:49;6.93;;;2.83;;
19812;SDS011;10066;48.108;11.448;2023-09-18T08:20:17;7.23;;;2.80;;
19812;SDS011;10066;48.108;11.448;2023-09-18T08:22:44;4.83;;;2.93;;
19812;SDS011;10066;48.108;11.448;2023-09-18T08:25:13;6.93;;;2.77;;
19812;SDS011;10066;48.108;11.448;2023-09-18T08:27:40;6.10;;;3.07;;
19812;SDS011;10066;48.108;11.448;2023-09-18T08:30:09;6.23;;;2.67;;
19812;SDS011;10066;48.108;11.448;2023-09-18T08:32:37;5.20;;;3.20;;
19812;SDS011;10066;48.108;11.448;2023-09-18T08:35:08;6.67;;;2.90;;
19812;SDS011;10066;48.108;11.448;2023-09-18T08:37:35;9.87;;;3.00;;
19812;SDS011;10066;48.108;11.448;2023-09-18T08:40:02;11.07;;;3.33;;
19812;SDS011;10066;48.108;11.448;2023-09-18T08:42:35;6.53;;;3.00;;
19812;SDS011;10066;48.108;11.448;2023-09-18T08:45:05;6.63;;;3.23;;
19812;SDS011;10066;48.108;11.448;2023-09-18T08:47:36;6.93;;;3.07;;
19812;SDS011;10066;48.108;11.448;2023-09-18T08:50:07;5.87;;;3.17;;
19812;SDS011;10066;48.108;11.448;2023-09-18T08:52:35;11.03;;;3.60;;
19812;SDS011;10066;48.108;11.448;2023-09-18T08:55:02;6.13;;;3.17;;
19812;SDS011;10066;48.108;11.448;2023-09-18T08:57:30;6.43;;;3.30;;
19812;SDS011;10066;48.108;11.448;2023-09-18T08:59:58;7.97;;;3.13;;
19812;SDS011;10066;48.108;11.448;2023-09-18T09:02:33;6.00;;;3.20;;
19812;SDS011;10066;48.108;11.448;2023-09-18T09:05:00;8.27;;;3.00;;
19812;SDS011;10066;48.108;11.448;2023-09-18T09:07:28;6.93;;;3.40;;
19812;SDS011;10066;48.108;11.448;2023-09-18T09:09:56;6.97;;;3.83;;
19812;SDS011;10066;48.108;11.448;2023-09-18T09:15:15;6.83;;;3.33;;
19812;SDS011;10066;48.108;11.448;2023-09-18T09:17:42;12.27;;;3.20;;
19812;SDS011;10066;48.108;11.448;2023-09-18T09:20:11;5.63;;;3.10;;
19812;SDS011;10066;48.108;11.448;2023-09-18T09:22:41;3.90;;;2.83;;
19812;SDS011;10066;48.108;11.448;2023-09-18T09:25:27;9.13;;;3.17;;
19812;SDS011;10066;48.108;11.448;2023-09-18T09:27:57;8.57;;;2.93;;
19812;SDS011;10066;48.108;11.448;2023-09-18T09:30:25;10.47;;;2.70;;
19812;SDS011;10066;48.108;11.448;2023-09-18T09:32:56;6.77;;;3.00;;
19812;SDS011;10066;48.108;11.448;2023-09-18T09:35:24;12.50;;;3.10;;
19812;SDS011;10066;48.108;11.448;2023-09-18T09:37:56;5.33;;;2.63;;
19812;SDS011;10066;48.108;11.448;2023-09-18T09:40:26;6.33;;;3.03;;
19812;SDS011;10066;48.108;11.448;2023-09-18T09:42:54;4.77;;;2.90;;
19812;SDS011;10066;48.108;11.448;2023-09-18T09:45:27;7.07;;;2.87;;
19812;SDS011;10066;48.108;11.448;2023-09-18T09:47:55;10.20;;;3.00;;
19812;SDS011;10066;48.108;11.448;2023-09-18T09:50:23;6.43;;;3.00;;
19812;SDS011;10066;48.108;11.448;2023-09-18T09:52:52;7.80;;;3.20;;
19812;SDS011;10066;48.108;11.448;2023-09-18T09:55:22;7.83;;;2.80;;
19812;SDS011;10066;48.108;11.448;2023-09-18T09:57:54;6.77;;;2.93;;
19812;SDS011;10066;48.108;11.448;2023-09-18T10:00:25;8.77;;;3.10;;
19812;SDS011;10066;48.108;11.448;2023-09-18T10:03:02;5.10;;;2.57;;
19812;SDS011;10066;48.108;11.448;2023-09-18T10:05:31;10.47;;;2.90;;
19812;SDS011;10066;48.108;11.448;2023-09-18T10:08:02;10.23;;;3.10;;
19812;SDS011;10066;48.108;11.448;2023-09-18T10:10:33;10.87;;;3.80;;
19812;SDS011;10066;48.108;11.448;2023-09-18T10:13:10;8.33;;;3.10;;
19812;SDS011;10066;48.108;11.448;2023-09-18T10:15:44;14.03;;;3.50;;
19812;SDS011;10066;48.108;11.448;2023-09-18T10:18:16;12.17;;;3.20;;
19812;SDS011;10066;48.108;11.448;2023-09-18T10:20:46;9.93;;;2.77;;
19812;SDS011;10066;48.108;11.448;2023-09-18T10:23:22;10.40;;;3.03;;
19812;SDS011;10066;48.108;11.448;2023-09-18T10:25:59;11.60;;;3.07;;
19812;SDS011;10066;48.108;11.448;2023-09-18T10:28:28;9.77;;;2.60;;
19812;SDS011;10066;48.108;11.448;2023-09-18T10:30:58;9.83;;;2.90;;
19812;SDS011;10066;48.108;11.448;2023-09-18T10:33:28;8.17;;;2.63;;
19812;SDS011;10066;48.108;11.448;2023-09-18T10:35:56;7.13;;;3.07;;
19812;SDS011;10066;48.108;11.448;2023-09-18T10:38:27;14.33;;;2.90;;
19812;SDS011;10066;48.108;11.448;2023-09-18T10:40:55;8.70;;;2.60;;
19812;SDS011;10066;48.108;11.448;2023-09-18T10:43:23;8.43;;;2.77;;
19812;SDS011;10066;48.108;11.448;2023-09-18T10:45:51;9.60;;;2.60;;
19812;SDS011;10066;48.108;11.448;2023-09-18T10:48:18;9.57;;;2.80;;
19812;SDS011;10066;48.108;11.448;2023-09-18T10:50:47;6.93;;;2.47;;
19812;SDS011;10066;48.108;11.448;2023-09-18T10:53:15;13.10;;;3.00;;
19812;SDS011;10066;48.108;11.448;2023-09-18T10:55:46;9.23;;;2.50;;
19812;SDS011;10066;48.108;11.448;2023-09-18T10:58:14;11.63;;;3.03;;
19812;SDS011;10066;48.108;11.448;2023-09-18T11:00:50;8.30;;;2.67;;
19812;SDS011;10066;48.108;11.448;2023-09-18T11:03:17;7.30;;;2.83;;
19812;SDS011;10066;48.108;11.448;2023-09-18T11:05:45;7.77;;;2.63;;
19812;SDS011;10066;48.108;11.448;2023-09-18T11:08:27;9.43;;;2.87;;
19812;SDS011;10066;48.108;11.448;2023-09-18T11:10:57;10.47;;;2.50;;
19812;SDS011;10066;48.108;11.448;2023-09-18T11:13:29;8.47;;;3.10;;
19812;SDS011;10066;48.108;11.448;2023-09-18T11:16:01;14.03;;;3.23;;
19812;SDS011;10066;48.108;11.448;2023-09-18T11:18:39;10.40;;;3.20;;
19812;SDS011;10066;48.108;11.448;2023-09-18T11:21:06;6.80;;;2.80;;
19812;SDS011;10066;48.108;11.448;2023-09-18T11:23:34;11.90;;;3.23;;
19812;SDS011;10066;48.108;11.448;2023-09-18T11:26:08;11.10;;;3.23;;
19812;SDS011;10066;48.108;11.448;2023-09-18T11:28:35;12.67;;;2.80;;
19812;SDS011;10066;48.108;11.448;2023-09-18T11:31:03;11.50;;;3.20;;
19812;SDS011;10066;48.108;11.448;2023-09-18T11:33:32;15.67;;;3.63;;
19812;SDS011;10066;48.108;11.448;2023-09-18T11:36:03;12.93;;;3.80;;
19812;SDS011;10066;48.108;11.448;2023-09-18T11:38:31;12.93;;;3.30;;
19812;SDS011;10066;48.108;11.448;2023-09-18T11:41:01;13.40;;;4.07;;
19812;SDS011;10066;48.108;11.448;2023-09-18T11:43:50;8.80;;;3.23;;
19812;SDS011;10066;48.108;11.448;2023-09-18T11:46:18;11.63;;;3.50;;
19812;SDS011;10066;48.108;11.448;2023-09-18T11:48:46;9.90;;;2.97;;
19812;SDS011;10066;48.108;11.448;2023-09-18T11:51:20;10.67;;;2.63;;
19812;SDS011;10066;48.108;11.448;2023-09-18T11:53:49;6.43;;;1.87;;
19812;SDS011;10066;48.108;11.448;2023-09-18T11:56:22;7.77;;;1.90;;
19812;SDS011;10066;48.108;11.448;2023-09-18T11:58:50;8.70;;;2.10;;
19812;SDS011;10066;48.108;11.448;2023-09-18T12:01:19;8.17;;;2.00;;
19812;SDS011;10066;48.108;11.448;2023-09-18T12:03:52;7.43;;;1.70;;
19812;SDS011;10066;48.108;11.448;2023-09-18T12:06:20;7.47;;;1.97;;
19812;SDS011;10066;48.108;11.448;2023-09-18T12:08:48;5.10;;;1.53;;
19812;SDS011;10066;48.108;11.448;2023-09-18T12:11:17;5.20;;;1.40;;
19812;SDS011;10066;48.108;11.448;2023-09-18T12:13:46;7.23;;;1.73;;
19812;SDS011;10066;48.108;11.448;2023-09-18T12:16:13;7.97;;;1.80;;
19812;SDS011;10066;48.108;11.448;2023-09-18T12:18:44;5.77;;;1.80;;
19812;SDS011;10066;48.108;11.448;2023-09-18T12:21:12;9.63;;;1.60;;
19812;SDS011;10066;48.108;11.448;2023-09-18T12:23:41;7.30;;;1.57;;
19812;SDS011;10066;48.108;11.448;2023-09-18T12:26:10;6.83;;;2.20;;
19812;SDS011;10066;48.108;11.448;2023-09-18T12:28:38;10.63;;;1.43;;
19812;SDS011;10066;48.108;11.448;2023-09-18T12:31:06;5.17;;;1.37;;
19812;SDS011;10066;48.108;11.448;2023-09-18T12:33:36;3.60;;;1.47;;
19812;SDS011;10066;48.108;11.448;2023-09-18T12:36:04;5.23;;;1.47;;
19812;SDS011;10066;48.108;11.448;2023-09-18T12:38:33;4.30;;;1.30;;
19812;SDS011;10066;48.108;11.448;2023-09-18T12:41:02;4.40;;;1.50;;
19812;SDS011;10066;48.108;11.448;2023-09-18T12:43:33;4.73;;;1.40;;
19812;SDS011;10066;48.108;11.448;2023-09-18T12:46:02;4.93;;;1.70;;
19812;SDS011;10066;48.108;11.448;2023-09-18T12:48:32;4.43;;;1.60;;
19812;SDS011;10066;48.108;11.448;2023-09-18T12:51:03;4.03;;;1.40;;
19812;SDS011;10066;48.108;11.448;2023-09-18T12:53:30;4.60;;;1.40;;
19812;SDS011;10066;48.108;11.448;2023-09-18T12:56:05;6.00;;;1.50;;
19812;SDS011;10066;48.108;11.448;2023-09-18T12:58:34;3.53;;;1.60;;
19812;SDS011;10066;48.108;11.448;2023-09-18T13:01:03;4.03;;;1.43;;
19812;SDS011;10066;48.108;11.448;2023-09-18T13:03:34;6.30;;;1.20;;
19812;SDS011;10066;48.108;11.448;2023-09-18T13:06:11;4.67;;;1.10;;
19812;SDS011;10066;48.108;11.448;2023-09-18T13:08:42;5.43;;;1.10;;
19812;SDS011;10066;48.108;11.448;2023-09-18T13:11:09;6.70;;;1.40;;
19812;SDS011;10066;48.108;11.448;2023-09-18T13:13:39;1.50;;;1.00;;
19812;SDS011;10066;48.108;11.448;2023-09-18T13:23:38;4.83;;;1.40;;
19812;SDS011;10066;48.108;11.448;2023-09-18T13:26:05;1.60;;;1.03;;
19812;SDS011;10066;48.108;11.448;2023-09-18T13:28:33;3.03;;;1.47;;
19812;SDS011;10066;48.108;11.448;2023-09-18T13:31:01;4.47;;;1.37;;
19812;SDS011;10066;48.108;11.448;2023-09-18T13:33:30;4.20;;;1.30;;
19812;SDS011;10066;48.108;11.448;2023-09-18T13:35:59;5.03;;;1.30;;
19812;SDS011;10066;48.108;11.448;2023-09-18T13:38:27;4.55;;;1.30;;
19812;SDS011;10066;48.108;11.448;2023-09-18T13:43:21;3.70;;;1.40;;
19812;SDS011;10066;48.108;11.448;2023-09-18T13:45:48;3.90;;;1.30;;
19812;SDS011;10066;48.108;11.448;2023-09-18T17:49:11;2.93;;;1.00;;
19812;SDS011;10066;48.108;11.448;2023-09-18T17:51:38;2.80;;;1.10;;
19812;SDS011;10066;48.108;11.448;2023-09-18T17:54:07;2.63;;;1.20;;
19812;SDS011;10066;48.108;11.448;2023-09-18T17:56:34;2.30;;;0.90;;
19812;SDS011;10066;48.108;11.448;2023-09-18T17:59:01;3.17;;;1.00;;
19812;SDS011;10066;48.108;11.448;2023-09-18T18:01:28;2.40;;;1.10;;
19812;SDS011;10066;48.108;11.448;2023-09-18T18:03:55;1.53;;;0.97;;
19812;SDS011;10066;48.108;11.448;2023-09-18T18:08:49;1.95;;;1.05;;
19812;SDS011;10066;48.108;11.448;2023-09-18T18:11:18;2.53;;;1.23;;
19812;SDS011;10066;48.108;11.448;2023-09-18T18:13:45;2.30;;;1.30;;
19812;SDS011;10066;48.108;11.448;2023-09-18T18:16:12;3.60;;;1.20;;
19812;SDS011;10066;48.108;11.448;2023-09-18T18:18:39;1.70;;;1.20;;
19812;SDS011;10066;48.108;11.448;2023-09-18T18:21:06;2.03;;;1.00;;
19812;SDS011;10066;48.108;11.448;2023-09-18T18:23:33;2.60;;;1.00;;
19812;SDS011;10066;48.108;11.448;2023-09-18T18:26:01;1.83;;;1.10;;
19812;SDS011;10066;48.108;11.448;2023-09-18T18:28:35;1.57;;;1.10;;
19812;SDS011;10066;48.108;11.448;2023-09-18T18:31:03;1.70;;;1.13;;
19812;SDS011;10066;48.108;11.448;2023-09-18T18:33:30;2.27;;;0.80;;
19812;SDS011;10066;48.108;11.448;2023-09-18T18:35:57;1.47;;;0.90;;
19812;SDS011;10066;48.108;11.448;2023-09-18T18:38:24;2.90;;;1.17;;
19812;SDS011;10066;48.108;11.448;2023-09-18T18:40:54;1.47;;;1.10;;
19812;SDS011;10066;48.108;11.448;2023-09-18T18:43:22;2.60;;;1.00;;
19812;SDS011;10066;48.108;11.448;2023-09-18T18:45:52;2.70;;;1.10;;
19812;SDS011;10066;48.108;11.448;2023-09-18T18:48:21;3.93;;;1.20;;
19812;SDS011;10066;48.108;11.448;2023-09-18T18:50:50;3.03;;;1.10;;
19812;SDS011;10066;48.108;11.448;2023-09-18T18:53:17;1.30;;;0.97;;
19812;SDS011;10066;48.108;11.448;2023-09-18T18:55:45;4.07;;;1.00;;